createdAt,value
2024-02-08T00:09:05.953Z,41.17
2024-02-08T00:14:08.220Z,47.05
2024-02-08T00:19:10.485Z,51.35
2024-02-08T00:24:12.701Z,52.53
2024-02-08T00:29:15.192Z,54.28
2024-02-08T00:34:17.447Z,54.42
2024-02-08T00:39:19.808Z,61.83
2024-02-08T00:44:22.052Z,61.80
2024-02-08T00:49:24.455Z,61.90
2024-02-08T00:54:26.672Z,65.97
2024-02-08T00:59:29.023Z,67.15
2024-02-08T01:04:31.208Z,65.07
2024-02-08T01:09:33.357Z,71.38
2024-02-08T01:14:35.496Z,68.32
2024-02-08T01:19:37.730Z,69.07
2024-02-08T01:24:39.954Z,71.13
2024-02-08T01:29:42.128Z,71.63
2024-02-08T01:34:44.576Z,73.60
2024-02-08T01:39:46.793Z,71.47
2024-02-08T01:44:49.177Z,80.20
2024-02-08T01:49:51.511Z,73.60
2024-02-08T01:54:54.005Z,84.97
2024-02-08T01:59:56.241Z,84.03
2024-02-08T02:04:58.696Z,80.20
2024-02-08T02:10:00.955Z,86.15
2024-02-08T02:15:03.288Z,83.38
2024-02-08T02:20:05.735Z,81.65
2024-02-08T02:25:08.069Z,78.28
2024-02-08T02:30:13.767Z,84.82
2024-02-08T02:35:16.076Z,82.50
2024-02-08T02:40:18.335Z,87.80
2024-02-08T02:45:20.902Z,86.88
2024-02-08T02:50:23.486Z,89.07
2024-02-08T02:55:25.771Z,90.07
2024-02-08T03:00:27.985Z,90.95
2024-02-08T03:05:30.192Z,88.55
2024-02-08T03:10:33.265Z,92.20
2024-02-08T03:15:35.465Z,97.28
2024-02-08T03:20:37.905Z,95.53
2024-02-08T03:25:43.247Z,92.22
2024-02-08T03:30:45.466Z,91.90
2024-02-08T03:35:48.118Z,97.53
2024-02-08T03:40:50.321Z,99.40
2024-02-08T03:45:52.445Z,98.05
2024-02-08T03:50:54.653Z,98.43
2024-02-08T03:55:56.980Z,97.00
2024-02-08T04:00:59.229Z,98.53
2024-02-08T04:06:01.421Z,101.93
2024-02-08T04:11:03.709Z,98.15
2024-02-08T04:16:05.951Z,98.32
2024-02-08T04:21:08.075Z,98.85
2024-02-08T04:26:10.276Z,104.25
2024-02-08T04:31:12.527Z,104.03
2024-02-08T04:36:14.739Z,101.47
2024-02-08T04:41:17.160Z,97.90
2024-02-08T04:46:22.761Z,105.30
2024-02-08T04:51:25.010Z,102.28
2024-02-08T04:56:27.192Z,102.18
2024-02-08T05:01:29.366Z,104.05
2024-02-08T05:06:31.534Z,106.10
2024-02-08T05:11:33.721Z,104.20
2024-02-08T05:16:35.896Z,108.60
2024-02-08T05:21:38.537Z,102.93
2024-02-08T05:26:41.415Z,100.75
2024-02-08T05:31:43.575Z,107.55
2024-02-08T05:36:45.886Z,99.68
2024-02-08T05:41:48.133Z,106.63
2024-02-08T05:46:50.439Z,100.75
2024-02-08T05:51:52.707Z,105.50
2024-02-08T05:56:54.912Z,107.93
2024-02-08T06:01:57.804Z,108.07
2024-02-08T06:07:00.408Z,107.80
2024-02-08T06:12:02.887Z,106.70
2024-02-08T06:17:05.168Z,107.47
2024-02-08T06:22:07.658Z,109.50
2024-02-08T06:27:09.871Z,103.18
2024-02-08T06:32:12.313Z,113.40
2024-02-08T06:37:14.547Z,113.07
2024-02-08T06:42:24.280Z,113.15
2024-02-08T06:47:36.762Z,113.70
2024-02-08T06:52:39.080Z,111.22
2024-02-08T06:57:41.253Z,104.88
2024-02-08T07:02:43.613Z,99.85
2024-02-08T07:07:45.920Z,101.00
2024-02-08T07:12:48.205Z,105.35
2024-02-08T07:17:50.401Z,99.18
2024-02-08T07:22:52.596Z,95.85
2024-02-08T07:27:54.796Z,100.80
2024-02-08T07:32:56.960Z,104.40
2024-02-08T07:37:59.317Z,93.03
2024-02-08T07:43:01.513Z,101.00
2024-02-08T07:48:04.081Z,101.95
2024-02-08T07:53:06.268Z,91.72
2024-02-08T07:58:08.570Z,95.68
2024-02-08T08:03:11.435Z,92.97
2024-02-08T08:08:14.263Z,87.18
2024-02-08T08:13:16.434Z,82.57
2024-02-08T08:18:18.592Z,97.10
2024-02-08T08:23:20.858Z,88.72
2024-02-08T08:28:23.167Z,84.07
2024-02-08T08:33:25.386Z,83.45
2024-02-08T08:38:27.740Z,86.57
2024-02-08T08:43:30.052Z,88.35
2024-02-08T08:48:32.407Z,92.13
2024-02-08T08:53:34.619Z,89.97
2024-02-08T08:58:36.917Z,95.95
2024-02-08T09:03:42.259Z,89.68
2024-02-08T09:08:45.170Z,88.03
2024-02-08T09:13:49.320Z,90.35
2024-02-08T09:18:56.514Z,79.03
2024-02-08T09:23:58.764Z,77.32
2024-02-08T09:29:00.936Z,82.70
2024-02-08T09:34:03.400Z,80.05
2024-02-08T09:39:05.792Z,78.40
2024-02-08T09:44:08.619Z,78.30
2024-02-08T09:49:11.462Z,79.43
2024-02-08T09:54:13.747Z,82.30
2024-02-08T09:59:15.906Z,82.30
2024-02-08T10:04:19.101Z,79.60
2024-02-08T10:09:21.829Z,80.80
2024-02-08T10:14:23.966Z,85.65
2024-02-08T10:19:26.443Z,85.50
2024-02-08T10:24:29.230Z,81.40
2024-02-08T10:29:31.447Z,73.63
2024-02-08T10:34:33.858Z,82.10
2024-02-08T10:39:42.450Z,78.40
2024-02-08T10:44:44.659Z,83.60
2024-02-08T10:49:49.268Z,78.65
2024-02-08T10:54:52.470Z,81.72
2024-02-08T10:59:56.486Z,79.43
2024-02-08T11:04:59.072Z,80.88
2024-02-08T11:10:01.366Z,80.50
2024-02-08T11:15:09.145Z,78.60
2024-02-08T11:20:12.503Z,75.85
2024-02-08T11:25:22.030Z,72.03
2024-02-08T11:30:34.704Z,76.00
2024-02-08T11:35:37.810Z,76.88
2024-02-08T11:40:40.259Z,77.13
2024-02-08T11:45:51.077Z,74.22
2024-02-08T11:51:13.783Z,72.25
2024-02-08T11:56:18.143Z,72.95
2024-02-08T12:06:23.121Z,74.75
2024-02-08T12:11:26.027Z,74.88
2024-02-08T12:16:28.367Z,74.22
2024-02-08T12:21:30.632Z,65.32
2024-02-08T12:26:35.054Z,70.50
2024-02-08T12:31:38.521Z,74.28
2024-02-08T12:36:40.960Z,71.97
2024-02-08T12:41:43.146Z,72.90
2024-02-08T12:46:45.314Z,65.35
2024-02-08T12:51:47.671Z,68.10
2024-02-08T12:56:49.903Z,69.85
2024-02-08T13:01:52.353Z,70.18
2024-02-08T13:06:54.656Z,63.90
2024-02-08T13:12:06.908Z,65.75
2024-02-08T13:17:09.138Z,69.88
2024-02-08T13:22:11.416Z,54.95
2024-02-08T13:27:13.649Z,67.00
2024-02-08T13:32:15.855Z,65.10
2024-02-08T13:37:21.495Z,64.53
2024-02-08T13:42:29.313Z,63.03
2024-02-08T13:47:37.338Z,61.17
2024-02-08T13:52:40.214Z,64.32
2024-02-08T13:57:42.964Z,53.40
2024-02-08T14:02:45.173Z,59.70
2024-02-08T14:07:48.342Z,54.10
2024-02-08T14:12:50.616Z,54.30
2024-02-08T14:17:52.856Z,51.70
2024-02-08T14:22:55.343Z,53.67
2024-02-08T14:27:57.552Z,54.28
2024-02-08T14:32:59.723Z,59.20
2024-02-08T14:38:01.888Z,55.53
2024-02-08T14:43:04.072Z,53.10
2024-02-08T14:48:09.757Z,54.20
2024-02-08T14:53:11.913Z,52.58
2024-02-08T14:58:14.598Z,46.97
2024-02-08T15:03:16.808Z,50.97
2024-02-08T15:08:18.991Z,49.08
2024-02-08T15:13:21.238Z,55.78
2024-02-08T15:18:23.511Z,52.35
2024-02-08T15:23:25.816Z,50.40
2024-02-08T15:28:28.185Z,45.70
2024-02-08T15:33:30.799Z,47.22
2024-02-08T15:38:33.179Z,44.78
2024-02-08T15:43:35.406Z,46.42
2024-02-08T15:48:37.650Z,48.78
2024-02-08T15:53:43.870Z,44.95
2024-02-08T15:58:46.554Z,48.92
2024-02-08T16:03:49.279Z,50.15
2024-02-08T16:08:51.458Z,46.58
2024-02-08T16:13:53.630Z,51.75
2024-02-08T16:18:55.915Z,48.15
2024-02-08T16:23:59.045Z,51.70
2024-02-08T16:29:01.382Z,47.85
2024-02-08T16:34:03.674Z,51.25
2024-02-08T16:39:07.080Z,52.17
2024-02-08T16:44:09.733Z,50.75
2024-02-08T16:49:11.918Z,53.65
2024-02-08T16:54:14.120Z,52.22
2024-02-08T16:59:16.342Z,55.95
2024-02-08T17:04:19.202Z,50.47
2024-02-08T17:09:21.801Z,51.72
2024-02-08T17:14:24.020Z,54.75
2024-02-08T17:19:29.335Z,57.55
2024-02-08T17:24:31.491Z,51.08
2024-02-08T17:29:33.793Z,55.75
2024-02-08T17:34:36.045Z,57.65
2024-02-08T17:39:39.055Z,58.83
2024-02-08T17:44:43.484Z,53.10
2024-02-08T17:54:47.776Z,57.75
2024-02-08T17:59:53.434Z,60.10
2024-02-08T18:04:55.675Z,62.30
2024-02-08T18:09:57.893Z,64.32
2024-02-08T18:15:00.098Z,64.10
2024-02-08T18:20:02.556Z,61.95
2024-02-08T18:25:06.206Z,64.25
2024-02-08T18:30:13.465Z,59.27
2024-02-08T18:35:21.253Z,59.58
2024-02-08T18:40:23.513Z,62.92
2024-02-08T18:45:27.956Z,67.53
2024-02-08T18:50:31.072Z,66.45
2024-02-08T18:55:35.385Z,69.97
2024-02-08T19:00:40.013Z,67.25
2024-02-08T19:05:45.703Z,65.25
2024-02-08T19:10:48.379Z,72.45
2024-02-08T19:15:52.668Z,70.95
2024-02-08T19:20:55.250Z,67.13
2024-02-08T19:25:57.455Z,66.45
2024-02-08T19:30:59.650Z,68.85
2024-02-08T19:36:05.737Z,68.20
2024-02-08T19:41:08.718Z,71.35
2024-02-08T19:46:10.933Z,70.20
2024-02-08T19:51:13.482Z,71.43
2024-02-08T19:56:15.785Z,70.78
2024-02-08T20:01:25.937Z,75.03
2024-02-08T20:06:30.514Z,79.10
2024-02-08T20:11:32.705Z,74.30
2024-02-08T20:16:35.011Z,77.82
2024-02-08T20:21:39.300Z,77.95
2024-02-08T20:26:43.610Z,76.40
2024-02-08T20:31:46.261Z,77.70
2024-02-08T20:36:50.263Z,79.78
2024-02-08T20:41:54.327Z,81.25
2024-02-08T20:46:57.325Z,80.63
2024-02-08T20:51:59.488Z,79.50
2024-02-08T20:57:01.718Z,84.15
2024-02-08T21:02:03.951Z,81.18
2024-02-08T21:07:06.242Z,79.32
2024-02-08T21:12:08.542Z,84.22
2024-02-08T21:17:10.751Z,86.40
2024-02-08T21:22:13.012Z,86.10
2024-02-08T21:27:15.275Z,84.38
2024-02-08T21:32:17.461Z,87.13
2024-02-08T21:37:19.608Z,86.82
2024-02-08T21:42:21.795Z,88.85
2024-02-08T21:47:24.017Z,93.22
2024-02-08T21:52:26.323Z,89.65
2024-02-08T21:57:28.514Z,89.40
2024-02-08T22:02:30.660Z,88.78
2024-02-08T22:07:32.837Z,86.95
2024-02-08T22:12:35.006Z,86.68
2024-02-08T22:17:37.158Z,91.95
2024-02-08T22:22:43.051Z,94.70
2024-02-08T22:27:45.844Z,94.57
2024-02-08T22:32:48.635Z,91.95
2024-02-08T22:37:50.773Z,98.05
2024-02-08T22:42:52.904Z,98.63
2024-02-08T22:47:55.105Z,95.78
2024-02-08T22:52:57.500Z,96.00
2024-02-08T22:57:59.763Z,91.97
2024-02-08T23:03:02.484Z,93.25
2024-02-08T23:08:04.871Z,93.57
2024-02-08T23:13:07.379Z,95.50
2024-02-08T23:18:09.555Z,92.80
2024-02-08T23:23:12.553Z,94.05
2024-02-08T23:28:14.798Z,91.07
2024-02-08T23:33:17.039Z,92.50
2024-02-08T23:38:19.493Z,90.18
2024-02-08T23:43:21.795Z,93.10
2024-02-08T23:48:24.025Z,100.50
2024-02-08T23:53:27.239Z,89.68
2024-02-08T23:58:29.687Z,93.97
